sensor_id;sensor_type;location;lat;lon;timestamp;temperature;humidity
55083;DHT22;40978;52.850;6.506;2023-04-25T00:02:18;6.20;99.90
55083;DHT22;40978;52.850;6.506;2023-04-25T00:04:44;6.20;99.90
55083;DHT22;40978;52.850;6.506;2023-04-25T00:07:10;6.10;99.90
55083;DHT22;40978;52.850;6.506;2023-04-25T00:09:36;6.00;99.90
55083;DHT22;40978;52.850;6.506;2023-04-25T00:12:02;6.00;99.90
55083;DHT22;40978;52.850;6.506;2023-04-25T00:14:29;5.90;99.90
55083;DHT22;40978;52.850;6.506;2023-04-25T00:16:55;5.90;99.90
55083;DHT22;40978;52.850;6.506;2023-04-25T00:19:21;5.80;99.90
55083;DHT22;40978;52.850;6.506;2023-04-25T00:21:47;5.80;99.90
55083;DHT22;40978;52.850;6.506;2023-04-25T00:24:13;5.70;99.90
55083;DHT22;40978;52.850;6.506;2023-04-25T00:26:39;5.60;99.90
55083;DHT22;40978;52.850;6.506;2023-04-25T00:29:05;5.60;99.90
55083;DHT22;40978;52.850;6.506;2023-04-25T00:31:30;5.60;99.90
55083;DHT22;40978;52.850;6.506;2023-04-25T00:33:56;5.60;99.90
55083;DHT22;40978;52.850;6.506;2023-04-25T00:36:22;5.60;99.90
55083;DHT22;40978;52.850;6.506;2023-04-25T00:38:48;5.50;99.90
55083;DHT22;40978;52.850;6.506;2023-04-25T00:41:13;5.50;99.90
55083;DHT22;40978;52.850;6.506;2023-04-25T00:43:39;5.40;99.90
55083;DHT22;40978;52.850;6.506;2023-04-25T00:46:05;5.40;99.90
55083;DHT22;40978;52.850;6.506;2023-04-25T00:48:31;5.40;99.90
55083;DHT22;40978;52.850;6.506;2023-04-25T00:50:58;5.40;99.90
55083;DHT22;40978;52.850;6.506;2023-04-25T00:53:25;5.50;99.90
55083;DHT22;40978;52.850;6.506;2023-04-25T00:55:51;5.50;99.90
55083;DHT22;40978;52.850;6.506;2023-04-25T00:58:18;5.50;99.90
55083;DHT22;40978;52.850;6.506;2023-04-25T01:00:46;5.50;99.90
55083;DHT22;40978;52.850;6.506;2023-04-25T01:03:15;5.60;99.90
55083;DHT22;40978;52.850;6.506;2023-04-25T01:05:42;5.60;99.90
55083;DHT22;40978;52.850;6.506;2023-04-25T01:08:09;5.50;99.90
55083;DHT22;40978;52.850;6.506;2023-04-25T01:10:36;5.60;99.90
55083;DHT22;40978;52.850;6.506;2023-04-25T01:13:02;5.60;99.90
55083;DHT22;40978;52.850;6.506;2023-04-25T01:15:28;5.50;99.90
55083;DHT22;40978;52.850;6.506;2023-04-25T01:17:54;5.40;99.90
55083;DHT22;40978;52.850;6.506;2023-04-25T01:20:24;5.40;99.90
55083;DHT22;40978;52.850;6.506;2023-04-25T01:22:54;5.40;99.90
55083;DHT22;40978;52.850;6.506;2023-04-25T01:25:22;5.40;99.90
55083;DHT22;40978;52.850;6.506;2023-04-25T01:27:48;5.30;99.90
55083;DHT22;40978;52.850;6.506;2023-04-25T01:30:14;5.30;99.90
55083;DHT22;40978;52.850;6.506;2023-04-25T01:32:41;5.20;99.90
55083;DHT22;40978;52.850;6.506;2023-04-25T01:35:09;5.20;99.90
55083;DHT22;40978;52.850;6.506;2023-04-25T01:37:42;5.20;99.90
55083;DHT22;40978;52.850;6.506;2023-04-25T01:40:09;5.20;99.90
55083;DHT22;40978;52.850;6.506;2023-04-25T01:42:38;5.20;99.90
55083;DHT22;40978;52.850;6.506;2023-04-25T01:45:06;5.20;99.90
55083;DHT22;40978;52.850;6.506;2023-04-25T01:47:32;5.30;99.90
55083;DHT22;40978;52.850;6.506;2023-04-25T01:49:58;5.30;99.90
55083;DHT22;40978;52.850;6.506;2023-04-25T01:52:23;5.30;99.90
55083;DHT22;40978;52.850;6.506;2023-04-25T01:54:50;5.20;99.90
55083;DHT22;40978;52.850;6.506;2023-04-25T01:57:16;5.30;99.90
55083;DHT22;40978;52.850;6.506;2023-04-25T01:59:43;5.40;99.90
55083;DHT22;40978;52.850;6.506;2023-04-25T02:02:09;5.40;99.90
55083;DHT22;40978;52.850;6.506;2023-04-25T02:04:35;5.50;99.90
55083;DHT22;40978;52.850;6.506;2023-04-25T02:07:01;5.40;99.90
55083;DHT22;40978;52.850;6.506;2023-04-25T02:09:26;5.40;99.90
55083;DHT22;40978;52.850;6.506;2023-04-25T02:11:52;5.40;99.90
55083;DHT22;40978;52.850;6.506;2023-04-25T02:14:18;5.40;99.90
55083;DHT22;40978;52.850;6.506;2023-04-25T02:16:44;5.40;99.90
55083;DHT22;40978;52.850;6.506;2023-04-25T02:19:10;5.30;99.90
55083;DHT22;40978;52.850;6.506;2023-04-25T02:21:36;5.40;99.90
55083;DHT22;40978;52.850;6.506;2023-04-25T02:24:03;5.40;99.90
55083;DHT22;40978;52.850;6.506;2023-04-25T02:26:29;5.40;99.90
55083;DHT22;40978;52.850;6.506;2023-04-25T02:28:56;5.40;99.90
55083;DHT22;40978;52.850;6.506;2023-04-25T02:31:22;5.30;99.90
55083;DHT22;40978;52.850;6.506;2023-04-25T02:33:48;5.40;99.90
55083;DHT22;40978;52.850;6.506;2023-04-25T02:36:14;5.40;99.90
55083;DHT22;40978;52.850;6.506;2023-04-25T02:38:40;5.40;99.90
55083;DHT22;40978;52.850;6.506;2023-04-25T02:41:06;5.30;99.90
55083;DHT22;40978;52.850;6.506;2023-04-25T02:43:32;5.40;99.90
55083;DHT22;40978;52.850;6.506;2023-04-25T02:45:57;5.40;99.90
55083;DHT22;40978;52.850;6.506;2023-04-25T02:48:23;5.30;99.90
55083;DHT22;40978;52.850;6.506;2023-04-25T02:50:49;5.40;99.90
55083;DHT22;40978;52.850;6.506;2023-04-25T02:53:14;5.30;99.90
55083;DHT22;40978;52.850;6.506;2023-04-25T02:55:40;5.30;99.90
55083;DHT22;40978;52.850;6.506;2023-04-25T02:58:06;5.30;99.90
55083;DHT22;40978;52.850;6.506;2023-04-25T03:00:32;5.30;99.90
55083;DHT22;40978;52.850;6.506;2023-04-25T03:02:58;5.30;99.90
55083;DHT22;40978;52.850;6.506;2023-04-25T03:05:24;5.20;99.90
55083;DHT22;40978;52.850;6.506;2023-04-25T03:07:49;5.20;99.90
55083;DHT22;40978;52.850;6.506;2023-04-25T03:10:15;5.20;99.90
55083;DHT22;40978;52.850;6.506;2023-04-25T03:12:41;5.20;99.90
55083;DHT22;40978;52.850;6.506;2023-04-25T03:15:07;5.20;99.90
55083;DHT22;40978;52.850;6.506;2023-04-25T03:17:33;5.20;99.90
55083;DHT22;40978;52.850;6.506;2023-04-25T03:19:58;5.20;99.90
55083;DHT22;40978;52.850;6.506;2023-04-25T03:22:24;5.10;99.90
55083;DHT22;40978;52.850;6.506;2023-04-25T03:24:50;5.10;99.90
55083;DHT22;40978;52.850;6.506;2023-04-25T03:27:16;5.10;99.90
55083;DHT22;40978;52.850;6.506;2023-04-25T03:29:42;5.10;99.90
55083;DHT22;40978;52.850;6.506;2023-04-25T03:32:08;5.10;99.90
55083;DHT22;40978;52.850;6.506;2023-04-25T03:34:33;5.10;99.90
55083;DHT22;40978;52.850;6.506;2023-04-25T03:36:59;5.00;99.90
55083;DHT22;40978;52.850;6.506;2023-04-25T03:39:25;5.00;99.90
55083;DHT22;40978;52.850;6.506;2023-04-25T03:41:51;4.90;99.90
55083;DHT22;40978;52.850;6.506;2023-04-25T03:44:17;4.90;99.90
55083;DHT22;40978;52.850;6.506;2023-04-25T03:46:42;4.80;99.90
55083;DHT22;40978;52.850;6.506;2023-04-25T03:49:08;4.80;99.90
55083;DHT22;40978;52.850;6.506;2023-04-25T03:51:34;4.80;99.90
55083;DHT22;40978;52.850;6.506;2023-04-25T03:54:00;4.80;99.90
55083;DHT22;40978;52.850;6.506;2023-04-25T03:56:25;4.70;99.90
55083;DHT22;40978;52.850;6.506;2023-04-25T03:58:51;4.70;99.90
55083;DHT22;40978;52.850;6.506;2023-04-25T04:01:17;4.70;99.90
55083;DHT22;40978;52.850;6.506;2023-04-25T04:03:42;4.70;99.90
55083;DHT22;40978;52.850;6.506;2023-04-25T04:06:08;4.70;99.90
55083;DHT22;40978;52.850;6.506;2023-04-25T04:08:34;4.70;99.90
55083;DHT22;40978;52.850;6.506;2023-04-25T04:11:01;4.60;99.90
55083;DHT22;40978;52.850;6.506;2023-04-25T04:13:27;4.60;99.90
55083;DHT22;40978;52.850;6.506;2023-04-25T04:15:53;4.60;99.90
55083;DHT22;40978;52.850;6.506;2023-04-25T04:18:18;4.60;99.90
55083;DHT22;40978;52.850;6.506;2023-04-25T04:20:44;4.50;99.90
55083;DHT22;40978;52.850;6.506;2023-04-25T04:23:11;4.50;99.90
55083;DHT22;40978;52.850;6.506;2023-04-25T04:25:37;4.50;99.90
55083;DHT22;40978;52.850;6.506;2023-04-25T04:28:03;4.50;99.90
55083;DHT22;40978;52.850;6.506;2023-04-25T04:30:29;4.50;99.90
55083;DHT22;40978;52.850;6.506;2023-04-25T04:32:56;4.50;99.90
55083;DHT22;40978;52.850;6.506;2023-04-25T04:35:22;4.60;99.90
55083;DHT22;40978;52.850;6.506;2023-04-25T04:37:49;4.60;99.90
55083;DHT22;40978;52.850;6.506;2023-04-25T04:40:15;4.60;99.90
55083;DHT22;40978;52.850;6.506;2023-04-25T04:42:44;4.60;99.90
55083;DHT22;40978;52.850;6.506;2023-04-25T04:45:14;4.60;99.90
55083;DHT22;40978;52.850;6.506;2023-04-25T04:47:40;4.70;99.90
55083;DHT22;40978;52.850;6.506;2023-04-25T04:50:07;4.80;99.90
55083;DHT22;40978;52.850;6.506;2023-04-25T04:52:35;4.80;99.90
55083;DHT22;40978;52.850;6.506;2023-04-25T04:55:02;4.80;99.90
55083;DHT22;40978;52.850;6.506;2023-04-25T04:57:28;4.80;99.90
55083;DHT22;40978;52.850;6.506;2023-04-25T04:59:54;4.90;99.90
55083;DHT22;40978;52.850;6.506;2023-04-25T05:02:20;4.90;99.90
55083;DHT22;40978;52.850;6.506;2023-04-25T05:04:46;4.90;99.90
55083;DHT22;40978;52.850;6.506;2023-04-25T05:07:12;4.90;99.90
55083;DHT22;40978;52.850;6.506;2023-04-25T05:09:38;5.00;99.90
55083;DHT22;40978;52.850;6.506;2023-04-25T05:12:04;5.00;99.90
55083;DHT22;40978;52.850;6.506;2023-04-25T05:14:30;5.10;99.90
55083;DHT22;40978;52.850;6.506;2023-04-25T05:16:56;5.10;99.90
55083;DHT22;40978;52.850;6.506;2023-04-25T05:19:22;5.20;99.90
55083;DHT22;40978;52.850;6.506;2023-04-25T05:21:47;5.30;99.90
55083;DHT22;40978;52.850;6.506;2023-04-25T05:24:13;5.40;99.90
55083;DHT22;40978;52.850;6.506;2023-04-25T05:26:39;5.60;99.90
55083;DHT22;40978;52.850;6.506;2023-04-25T05:29:05;5.70;99.90
55083;DHT22;40978;52.850;6.506;2023-04-25T05:31:31;5.80;99.90
55083;DHT22;40978;52.850;6.506;2023-04-25T05:33:57;5.80;99.90
55083;DHT22;40978;52.850;6.506;2023-04-25T05:36:23;5.80;99.90
55083;DHT22;40978;52.850;6.506;2023-04-25T05:38:49;6.00;99.90
55083;DHT22;40978;52.850;6.506;2023-04-25T05:41:15;6.30;99.90
55083;DHT22;40978;52.850;6.506;2023-04-25T05:43:40;6.60;99.90
55083;DHT22;40978;52.850;6.506;2023-04-25T05:46:11;6.80;99.90
55083;DHT22;40978;52.850;6.506;2023-04-25T05:48:37;6.90;99.90
55083;DHT22;40978;52.850;6.506;2023-04-25T05:51:03;6.80;99.90
55083;DHT22;40978;52.850;6.506;2023-04-25T05:53:29;6.80;99.90
55083;DHT22;40978;52.850;6.506;2023-04-25T05:55:55;6.70;99.90
55083;DHT22;40978;52.850;6.506;2023-04-25T05:58:20;6.70;99.90
55083;DHT22;40978;52.850;6.506;2023-04-25T06:00:46;6.70;99.90
55083;DHT22;40978;52.850;6.506;2023-04-25T06:03:12;6.60;99.90
55083;DHT22;40978;52.850;6.506;2023-04-25T06:05:43;6.50;99.90
55083;DHT22;40978;52.850;6.506;2023-04-25T06:08:09;6.40;99.90
55083;DHT22;40978;52.850;6.506;2023-04-25T06:10:36;6.40;99.90
55083;DHT22;40978;52.850;6.506;2023-04-25T06:13:02;6.40;99.90
55083;DHT22;40978;52.850;6.506;2023-04-25T06:15:28;6.40;99.90
55083;DHT22;40978;52.850;6.506;2023-04-25T06:17:54;6.40;99.90
55083;DHT22;40978;52.850;6.506;2023-04-25T06:20:20;6.40;99.90
55083;DHT22;40978;52.850;6.506;2023-04-25T06:22:49;6.40;99.90
55083;DHT22;40978;52.850;6.506;2023-04-25T06:25:15;6.50;99.90
55083;DHT22;40978;52.850;6.506;2023-04-25T06:27:41;6.50;99.90
55083;DHT22;40978;52.850;6.506;2023-04-25T06:30:07;6.50;99.90
55083;DHT22;40978;52.850;6.506;2023-04-25T06:32:33;6.50;99.90
55083;DHT22;40978;52.850;6.506;2023-04-25T06:35:00;6.50;99.90
55083;DHT22;40978;52.850;6.506;2023-04-25T06:37:26;6.60;99.90
55083;DHT22;40978;52.850;6.506;2023-04-25T06:39:54;6.70;99.90
55083;DHT22;40978;52.850;6.506;2023-04-25T06:42:20;6.80;99.90
55083;DHT22;40978;52.850;6.506;2023-04-25T06:44:46;6.90;99.90
55083;DHT22;40978;52.850;6.506;2023-04-25T06:47:11;7.10;99.90
55083;DHT22;40978;52.850;6.506;2023-04-25T06:49:37;7.20;99.90
55083;DHT22;40978;52.850;6.506;2023-04-25T06:52:03;7.40;99.90
55083;DHT22;40978;52.850;6.506;2023-04-25T06:54:28;7.50;99.90
55083;DHT22;40978;52.850;6.506;2023-04-25T06:56:55;7.60;99.90
55083;DHT22;40978;52.850;6.506;2023-04-25T06:59:21;7.60;99.90
55083;DHT22;40978;52.850;6.506;2023-04-25T07:01:47;7.50;99.90
55083;DHT22;40978;52.850;6.506;2023-04-25T07:04:13;7.60;99.90
55083;DHT22;40978;52.850;6.506;2023-04-25T07:06:39;7.70;99.90
55083;DHT22;40978;52.850;6.506;2023-04-25T07:09:11;7.90;99.90
55083;DHT22;40978;52.850;6.506;2023-04-25T07:11:37;8.10;99.90
55083;DHT22;40978;52.850;6.506;2023-04-25T07:14:03;8.00;99.90
55083;DHT22;40978;52.850;6.506;2023-04-25T07:16:29;8.10;99.90
55083;DHT22;40978;52.850;6.506;2023-04-25T07:18:55;8.00;99.90
55083;DHT22;40978;52.850;6.506;2023-04-25T07:21:21;8.00;99.90
55083;DHT22;40978;52.850;6.506;2023-04-25T07:23:47;8.00;99.90
55083;DHT22;40978;52.850;6.506;2023-04-25T07:26:12;7.90;99.90
55083;DHT22;40978;52.850;6.506;2023-04-25T07:28:38;7.80;99.90
55083;DHT22;40978;52.850;6.506;2023-04-25T07:31:04;7.80;99.90
55083;DHT22;40978;52.850;6.506;2023-04-25T07:33:30;7.90;99.90
55083;DHT22;40978;52.850;6.506;2023-04-25T07:35:56;8.00;99.90
55083;DHT22;40978;52.850;6.506;2023-04-25T07:38:22;8.30;99.90
55083;DHT22;40978;52.850;6.506;2023-04-25T07:40:48;8.50;99.90
55083;DHT22;40978;52.850;6.506;2023-04-25T07:43:15;8.90;99.90
55083;DHT22;40978;52.850;6.506;2023-04-25T07:45:46;9.30;99.90
55083;DHT22;40978;52.850;6.506;2023-04-25T07:48:16;9.80;99.90
55083;DHT22;40978;52.850;6.506;2023-04-25T07:50:42;10.30;99.90
55083;DHT22;40978;52.850;6.506;2023-04-25T07:53:08;10.20;99.90
55083;DHT22;40978;52.850;6.506;2023-04-25T07:55:34;10.20;99.90
55083;DHT22;40978;52.850;6.506;2023-04-25T07:58:01;10.00;99.90
55083;DHT22;40978;52.850;6.506;2023-04-25T08:00:28;9.70;99.90
55083;DHT22;40978;52.850;6.506;2023-04-25T08:02:54;9.20;99.90
55083;DHT22;40978;52.850;6.506;2023-04-25T08:05:20;8.80;99.90
55083;DHT22;40978;52.850;6.506;2023-04-25T08:07:45;8.50;99.90
55083;DHT22;40978;52.850;6.506;2023-04-25T08:10:11;8.10;99.90
55083;DHT22;40978;52.850;6.506;2023-04-25T08:12:37;8.00;99.90
55083;DHT22;40978;52.850;6.506;2023-04-25T08:15:04;8.00;99.90
55083;DHT22;40978;52.850;6.506;2023-04-25T08:17:30;8.50;99.90
55083;DHT22;40978;52.850;6.506;2023-04-25T08:19:56;9.40;99.90
55083;DHT22;40978;52.850;6.506;2023-04-25T08:22:22;10.10;99.90
55083;DHT22;40978;52.850;6.506;2023-04-25T08:24:48;11.00;99.90
55083;DHT22;40978;52.850;6.506;2023-04-25T08:27:14;12.00;99.90
55083;DHT22;40978;52.850;6.506;2023-04-25T08:29:39;12.20;99.90
55083;DHT22;40978;52.850;6.506;2023-04-25T08:32:05;12.00;99.90
55083;DHT22;40978;52.850;6.506;2023-04-25T08:34:31;12.20;99.90
55083;DHT22;40978;52.850;6.506;2023-04-25T08:36:56;11.80;99.90
55083;DHT22;40978;52.850;6.506;2023-04-25T08:39:22;11.30;99.90
55083;DHT22;40978;52.850;6.506;2023-04-25T08:41:48;10.60;99.90
55083;DHT22;40978;52.850;6.506;2023-04-25T08:44:14;10.10;99.90
55083;DHT22;40978;52.850;6.506;2023-04-25T08:46:41;9.80;99.90
55083;DHT22;40978;52.850;6.506;2023-04-25T08:49:08;10.40;99.90
55083;DHT22;40978;52.850;6.506;2023-04-25T08:51:44;10.70;99.90
55083;DHT22;40978;52.850;6.506;2023-04-25T08:54:16;10.90;99.90
55083;DHT22;40978;52.850;6.506;2023-04-25T08:56:44;11.60;99.90
55083;DHT22;40978;52.850;6.506;2023-04-25T08:59:11;12.30;99.90
55083;DHT22;40978;52.850;6.506;2023-04-25T09:01:37;12.70;99.90
55083;DHT22;40978;52.850;6.506;2023-04-25T09:04:03;13.10;99.90
55083;DHT22;40978;52.850;6.506;2023-04-25T09:06:29;13.40;99.90
55083;DHT22;40978;52.850;6.506;2023-04-25T09:09:02;13.30;99.90
55083;DHT22;40978;52.850;6.506;2023-04-25T09:11:29;13.30;99.90
55083;DHT22;40978;52.850;6.506;2023-04-25T09:19:31;11.40;99.90
55083;DHT22;40978;52.850;6.506;2023-04-25T09:21:58;10.50;99.90
55083;DHT22;40978;52.850;6.506;2023-04-25T09:24:39;9.60;99.90
55083;DHT22;40978;52.850;6.506;2023-04-25T09:27:06;8.90;99.90
55083;DHT22;40978;52.850;6.506;2023-04-25T09:29:34;8.50;99.90
55083;DHT22;40978;52.850;6.506;2023-04-25T09:32:26;8.30;99.90
55083;DHT22;40978;52.850;6.506;2023-04-25T09:34:53;8.20;99.90
55083;DHT22;40978;52.850;6.506;2023-04-25T09:37:20;7.90;99.90
55083;DHT22;40978;52.850;6.506;2023-04-25T09:39:47;7.80;99.90
55083;DHT22;40978;52.850;6.506;2023-04-25T09:42:14;7.80;99.90
55083;DHT22;40978;52.850;6.506;2023-04-25T09:44:45;8.30;99.90
55083;DHT22;40978;52.850;6.506;2023-04-25T09:47:15;9.30;99.90
55083;DHT22;40978;52.850;6.506;2023-04-25T09:49:47;10.30;99.90
55083;DHT22;40978;52.850;6.506;2023-04-25T09:52:20;10.70;99.90
55083;DHT22;40978;52.850;6.506;2023-04-25T09:54:47;11.20;99.90
55083;DHT22;40978;52.850;6.506;2023-04-25T09:59:46;11.70;99.90
55083;DHT22;40978;52.850;6.506;2023-04-25T10:02:13;11.10;99.90
55083;DHT22;40978;52.850;6.506;2023-04-25T10:04:41;10.70;99.90
55083;DHT22;40978;52.850;6.506;2023-04-25T10:07:08;10.10;99.90
55083;DHT22;40978;52.850;6.506;2023-04-25T10:09:37;9.50;99.90
55083;DHT22;40978;52.850;6.506;2023-04-25T10:12:05;9.00;99.90
55083;DHT22;40978;52.850;6.506;2023-04-25T10:14:31;8.70;99.90
55083;DHT22;40978;52.850;6.506;2023-04-25T10:16:58;8.50;99.90
55083;DHT22;40978;52.850;6.506;2023-04-25T10:19:25;8.60;99.90
55083;DHT22;40978;52.850;6.506;2023-04-25T10:22:14;9.00;99.90
55083;DHT22;40978;52.850;6.506;2023-04-25T10:24:43;9.80;99.90
55083;DHT22;40978;52.850;6.506;2023-04-25T10:27:09;10.70;99.90
55083;DHT22;40978;52.850;6.506;2023-04-25T10:29:36;11.40;99.90
55083;DHT22;40978;52.850;6.506;2023-04-25T10:32:02;11.90;99.90
55083;DHT22;40978;52.850;6.506;2023-04-25T10:34:42;12.40;99.90
55083;DHT22;40978;52.850;6.506;2023-04-25T10:37:09;12.50;99.90
55083;DHT22;40978;52.850;6.506;2023-04-25T10:39:35;12.50;99.90
55083;DHT22;40978;52.850;6.506;2023-04-25T10:42:03;12.30;99.90
55083;DHT22;40978;52.850;6.506;2023-04-25T10:44:31;11.70;99.90
55083;DHT22;40978;52.850;6.506;2023-04-25T10:46:58;11.10;99.90
55083;DHT22;40978;52.850;6.506;2023-04-25T10:49:43;10.50;99.90
55083;DHT22;40978;52.850;6.506;2023-04-25T10:52:16;10.00;99.90
55083;DHT22;40978;52.850;6.506;2023-04-25T10:54:58;9.60;99.90
55083;DHT22;40978;52.850;6.506;2023-04-25T10:57:38;9.60;99.90
55083;DHT22;40978;52.850;6.506;2023-04-25T11:02:30;10.80;99.90
55083;DHT22;40978;52.850;6.506;2023-04-25T11:04:57;11.60;99.90
55083;DHT22;40978;52.850;6.506;2023-04-25T11:07:43;12.30;99.90
55083;DHT22;40978;52.850;6.506;2023-04-25T11:10:10;12.90;99.90
55083;DHT22;40978;52.850;6.506;2023-04-25T11:12:35;13.10;99.90
55083;DHT22;40978;52.850;6.506;2023-04-25T11:15:06;13.00;99.90
55083;DHT22;40978;52.850;6.506;2023-04-25T11:17:33;13.00;99.90
55083;DHT22;40978;52.850;6.506;2023-04-25T11:19:59;13.20;99.90
55083;DHT22;40978;52.850;6.506;2023-04-25T11:22:26;13.50;99.90
55083;DHT22;40978;52.850;6.506;2023-04-25T11:24:52;13.10;99.90
55083;DHT22;40978;52.850;6.506;2023-04-25T11:27:18;12.30;99.90
55083;DHT22;40978;52.850;6.506;2023-04-25T11:29:44;11.80;99.90
55083;DHT22;40978;52.850;6.506;2023-04-25T11:32:12;11.50;99.90
55083;DHT22;40978;52.850;6.506;2023-04-25T11:34:38;11.70;99.90
55083;DHT22;40978;52.850;6.506;2023-04-25T11:37:04;11.40;99.90
55083;DHT22;40978;52.850;6.506;2023-04-25T11:39:31;11.00;99.90
55083;DHT22;40978;52.850;6.506;2023-04-25T11:41:57;10.80;99.90
55083;DHT22;40978;52.850;6.506;2023-04-25T11:44:23;10.70;99.90
55083;DHT22;40978;52.850;6.506;2023-04-25T11:46:49;10.60;99.90
55083;DHT22;40978;52.850;6.506;2023-04-25T11:49:15;10.30;99.90
55083;DHT22;40978;52.850;6.506;2023-04-25T11:51:42;10.00;99.90
55083;DHT22;40978;52.850;6.506;2023-04-25T11:54:09;9.60;99.90
55083;DHT22;40978;52.850;6.506;2023-04-25T11:56:35;9.50;99.90
55083;DHT22;40978;52.850;6.506;2023-04-25T11:59:04;10.40;99.90
55083;DHT22;40978;52.850;6.506;2023-04-25T12:01:39;11.30;99.90
55083;DHT22;40978;52.850;6.506;2023-04-25T12:06:38;12.40;99.90
55083;DHT22;40978;52.850;6.506;2023-04-25T12:09:11;12.20;99.90
55083;DHT22;40978;52.850;6.506;2023-04-25T12:14:12;10.90;99.90
55083;DHT22;40978;52.850;6.506;2023-04-25T12:16:45;10.40;99.90
55083;DHT22;40978;52.850;6.506;2023-04-25T12:19:18;10.20;99.90
55083;DHT22;40978;52.850;6.506;2023-04-25T12:21:44;10.00;99.90
55083;DHT22;40978;52.850;6.506;2023-04-25T12:24:24;10.00;99.90
55083;DHT22;40978;52.850;6.506;2023-04-25T12:29:25;10.20;99.90
55083;DHT22;40978;52.850;6.506;2023-04-25T12:31:52;10.50;99.90
55083;DHT22;40978;52.850;6.506;2023-04-25T12:34:19;11.20;99.90
55083;DHT22;40978;52.850;6.506;2023-04-25T12:36:45;11.90;99.90
55083;DHT22;40978;52.850;6.506;2023-04-25T12:39:22;12.30;99.90
55083;DHT22;40978;52.850;6.506;2023-04-25T12:41:52;12.60;99.90
55083;DHT22;40978;52.850;6.506;2023-04-25T12:44:19;11.70;99.90
55083;DHT22;40978;52.850;6.506;2023-04-25T12:46:45;10.90;99.90
55083;DHT22;40978;52.850;6.506;2023-04-25T12:49:12;10.20;99.90
55083;DHT22;40978;52.850;6.506;2023-04-25T12:51:37;9.60;99.90
55083;DHT22;40978;52.850;6.506;2023-04-25T12:54:04;9.30;99.90
55083;DHT22;40978;52.850;6.506;2023-04-25T12:56:31;9.40;99.90
55083;DHT22;40978;52.850;6.506;2023-04-25T12:58:57;9.60;99.90
55083;DHT22;40978;52.850;6.506;2023-04-25T13:01:23;10.30;99.90
55083;DHT22;40978;52.850;6.506;2023-04-25T13:03:49;11.10;99.90
55083;DHT22;40978;52.850;6.506;2023-04-25T13:06:16;10.70;99.90
55083;DHT22;40978;52.850;6.506;2023-04-25T13:08:43;10.30;99.90
55083;DHT22;40978;52.850;6.506;2023-04-25T13:11:08;9.80;99.90
55083;DHT22;40978;52.850;6.506;2023-04-25T13:13:35;9.60;99.90
55083;DHT22;40978;52.850;6.506;2023-04-25T13:16:04;9.50;99.90
55083;DHT22;40978;52.850;6.506;2023-04-25T13:18:31;9.40;99.90
55083;DHT22;40978;52.850;6.506;2023-04-25T13:20:57;9.50;99.90
55083;DHT22;40978;52.850;6.506;2023-04-25T13:23:27;9.70;99.90
55083;DHT22;40978;52.850;6.506;2023-04-25T13:25:53;10.00;99.90
55083;DHT22;40978;52.850;6.506;2023-04-25T13:28:19;10.40;99.90
55083;DHT22;40978;52.850;6.506;2023-04-25T13:30:45;10.90;99.90
55083;DHT22;40978;52.850;6.506;2023-04-25T13:33:11;11.20;99.90
55083;DHT22;40978;52.850;6.506;2023-04-25T13:35:37;11.10;99.90
55083;DHT22;40978;52.850;6.506;2023-04-25T13:38:03;10.90;99.90
55083;DHT22;40978;52.850;6.506;2023-04-25T13:40:30;10.60;99.90
55083;DHT22;40978;52.850;6.506;2023-04-25T13:42:57;10.20;99.90
55083;DHT22;40978;52.850;6.506;2023-04-25T13:45:23;10.00;99.90
55083;DHT22;40978;52.850;6.506;2023-04-25T13:47:49;9.90;99.90
55083;DHT22;40978;52.850;6.506;2023-04-25T13:50:15;9.80;99.90
55083;DHT22;40978;52.850;6.506;2023-04-25T13:52:41;9.90;99.90
55083;DHT22;40978;52.850;6.506;2023-04-25T13:55:08;10.00;99.90
55083;DHT22;40978;52.850;6.506;2023-04-25T13:57:34;10.40;99.90
55083;DHT22;40978;52.850;6.506;2023-04-25T14:00:01;10.80;99.90
55083;DHT22;40978;52.850;6.506;2023-04-25T14:02:31;11.00;99.90
55083;DHT22;40978;52.850;6.506;2023-04-25T14:04:57;11.00;99.90
55083;DHT22;40978;52.850;6.506;2023-04-25T14:07:22;10.70;99.90
55083;DHT22;40978;52.850;6.506;2023-04-25T14:09:48;10.40;99.90
55083;DHT22;40978;52.850;6.506;2023-04-25T14:12:16;10.20;99.90
55083;DHT22;40978;52.850;6.506;2023-04-25T14:14:42;10.00;99.90
55083;DHT22;40978;52.850;6.506;2023-04-25T14:17:08;10.10;99.90
55083;DHT22;40978;52.850;6.506;2023-04-25T14:19:34;10.40;99.90
55083;DHT22;40978;52.850;6.506;2023-04-25T14:22:00;10.60;99.90
55083;DHT22;40978;52.850;6.506;2023-04-25T14:24:26;10.60;99.90
55083;DHT22;40978;52.850;6.506;2023-04-25T14:26:51;10.60;99.90
55083;DHT22;40978;52.850;6.506;2023-04-25T14:29:17;10.40;99.90
55083;DHT22;40978;52.850;6.506;2023-04-25T14:31:43;10.10;99.90
55083;DHT22;40978;52.850;6.506;2023-04-25T14:34:09;9.70;99.90
55083;DHT22;40978;52.850;6.506;2023-04-25T14:36:35;9.50;99.90
55083;DHT22;40978;52.850;6.506;2023-04-25T14:39:01;9.20;99.90
55083;DHT22;40978;52.850;6.506;2023-04-25T14:41:27;9.00;99.90
55083;DHT22;40978;52.850;6.506;2023-04-25T14:43:53;8.80;99.90
55083;DHT22;40978;52.850;6.506;2023-04-25T14:46:22;8.70;99.90
55083;DHT22;40978;52.850;6.506;2023-04-25T14:48:48;8.80;99.90
55083;DHT22;40978;52.850;6.506;2023-04-25T14:51:14;9.00;99.90
55083;DHT22;40978;52.850;6.506;2023-04-25T14:53:41;9.20;99.90
55083;DHT22;40978;52.850;6.506;2023-04-25T14:56:07;9.40;99.90
55083;DHT22;40978;52.850;6.506;2023-04-25T14:58:34;9.40;99.90
55083;DHT22;40978;52.850;6.506;2023-04-25T15:01:00;9.40;99.90
55083;DHT22;40978;52.850;6.506;2023-04-25T15:03:26;9.30;99.90
55083;DHT22;40978;52.850;6.506;2023-04-25T15:05:54;9.10;99.90
55083;DHT22;40978;52.850;6.506;2023-04-25T15:08:20;9.20;99.90
55083;DHT22;40978;52.850;6.506;2023-04-25T15:10:46;9.20;99.90
55083;DHT22;40978;52.850;6.506;2023-04-25T15:13:11;9.20;99.90
55083;DHT22;40978;52.850;6.506;2023-04-25T15:15:37;9.30;99.90
55083;DHT22;40978;52.850;6.506;2023-04-25T15:18:03;9.20;99.90
55083;DHT22;40978;52.850;6.506;2023-04-25T15:20:29;9.10;99.90
55083;DHT22;40978;52.850;6.506;2023-04-25T15:22:55;9.00;99.90
55083;DHT22;40978;52.850;6.506;2023-04-25T15:25:21;9.00;99.90
55083;DHT22;40978;52.850;6.506;2023-04-25T15:27:46;8.90;99.90
55083;DHT22;40978;52.850;6.506;2023-04-25T15:30:15;8.80;99.90
55083;DHT22;40978;52.850;6.506;2023-04-25T15:32:42;8.80;99.90
55083;DHT22;40978;52.850;6.506;2023-04-25T15:35:08;8.80;99.90
55083;DHT22;40978;52.850;6.506;2023-04-25T15:37:35;8.80;99.90
55083;DHT22;40978;52.850;6.506;2023-04-25T15:42:41;8.70;99.90
55083;DHT22;40978;52.850;6.506;2023-04-25T15:45:08;8.70;99.90
55083;DHT22;40978;52.850;6.506;2023-04-25T15:47:36;8.60;99.90
55083;DHT22;40978;52.850;6.506;2023-04-25T15:50:03;8.60;99.90
55083;DHT22;40978;52.850;6.506;2023-04-25T15:52:29;8.60;99.90
55083;DHT22;40978;52.850;6.506;2023-04-25T15:54:55;8.60;99.90
55083;DHT22;40978;52.850;6.506;2023-04-25T15:57:21;8.50;99.90
55083;DHT22;40978;52.850;6.506;2023-04-25T15:59:48;8.40;99.90
55083;DHT22;40978;52.850;6.506;2023-04-25T16:02:14;8.50;99.90